createdAt,value
2022-11-18T00:01:23.982Z,7.40
2022-11-18T00:03:53.098Z,7.32
2022-11-18T00:06:23.333Z,7.35
2022-11-18T00:08:51.982Z,7.70
2022-11-18T00:11:41.322Z,7.38
2022-11-18T00:14:29.699Z,7.10
2022-11-18T00:17:01.460Z,7.85
2022-11-18T00:19:32.788Z,8.13
2022-11-18T00:22:01.548Z,7.85
2022-11-18T00:24:29.539Z,6.20
2022-11-18T00:26:57.681Z,7.22
2022-11-18T00:29:29.096Z,7.20
2022-11-18T00:31:58.298Z,7.40
2022-11-18T00:34:26.500Z,7.15
2022-11-18T00:36:54.656Z,8.40
2022-11-18T00:39:23.274Z,7.38
2022-11-18T00:42:09.919Z,6.40
2022-11-18T00:44:37.888Z,6.93
2022-11-18T00:47:05.974Z,6.88
2022-11-18T00:49:33.763Z,7.22
2022-11-18T00:52:02.070Z,6.55
2022-11-18T00:54:30.382Z,6.65
2022-11-18T00:56:58.305Z,6.60
2022-11-18T00:59:26.432Z,6.53
2022-11-18T01:01:54.546Z,5.85
2022-11-18T01:04:22.627Z,6.63
2022-11-18T01:06:50.624Z,5.05
2022-11-18T01:09:18.666Z,6.43
2022-11-18T01:12:05.262Z,4.65
2022-11-18T01:14:33.245Z,5.30
2022-11-18T01:17:01.880Z,5.45
2022-11-18T01:19:29.710Z,5.63
2022-11-18T01:22:03.213Z,5.15
2022-11-18T01:24:32.898Z,5.25
2022-11-18T01:27:01.786Z,6.15
2022-11-18T01:29:29.804Z,6.05
2022-11-18T01:34:45.352Z,6.38
2022-11-18T01:37:13.316Z,8.07
2022-11-18T01:39:41.214Z,7.32
2022-11-18T01:42:15.988Z,6.50
2022-11-18T01:45:00.348Z,6.82
2022-11-18T01:47:33.844Z,6.57
2022-11-18T01:50:01.915Z,7.07
2022-11-18T01:52:30.356Z,6.80
2022-11-18T01:55:02.477Z,6.90
2022-11-18T01:57:32.599Z,6.47
2022-11-18T02:00:04.757Z,7.10
2022-11-18T02:02:34.619Z,6.47
2022-11-18T02:05:04.598Z,6.78
2022-11-18T02:07:36.572Z,6.50
2022-11-18T02:10:07.071Z,6.93
2022-11-18T02:12:35.752Z,7.18
2022-11-18T02:15:03.835Z,6.18
2022-11-18T02:17:56.949Z,6.00
2022-11-18T02:20:32.068Z,7.15
2022-11-18T02:22:59.907Z,7.40
2022-11-18T02:25:27.654Z,5.78
2022-11-18T02:28:29.568Z,7.18
2022-11-18T02:31:16.803Z,6.82
2022-11-18T02:33:57.262Z,7.00
2022-11-18T02:36:51.221Z,6.88
2022-11-18T02:39:24.579Z,6.85
2022-11-18T02:41:54.231Z,6.38
2022-11-18T02:44:23.554Z,7.22
2022-11-18T02:46:54.804Z,6.72
2022-11-18T02:49:35.249Z,6.70
2022-11-18T02:52:04.248Z,6.65
2022-11-18T02:54:34.384Z,6.72
2022-11-18T02:57:03.526Z,6.78
2022-11-18T02:59:31.380Z,7.72
2022-11-18T03:02:00.012Z,7.03
2022-11-18T03:04:28.138Z,7.30
2022-11-18T03:07:17.975Z,7.40
2022-11-18T03:09:49.057Z,8.00
2022-11-18T03:12:32.909Z,8.10
2022-11-18T03:15:00.551Z,7.60
2022-11-18T03:17:56.202Z,7.72
2022-11-18T03:20:39.997Z,7.18
2022-11-18T03:23:25.675Z,7.97
2022-11-18T03:26:01.478Z,7.70
2022-11-18T03:28:49.769Z,7.55
2022-11-18T03:31:37.402Z,7.45
2022-11-18T03:34:10.388Z,7.82
2022-11-18T03:36:46.818Z,7.47
2022-11-18T03:39:19.182Z,7.30
2022-11-18T03:41:56.546Z,8.05
2022-11-18T03:44:30.059Z,7.38
2022-11-18T03:47:01.533Z,6.85
2022-11-18T03:49:43.528Z,6.82
2022-11-18T03:52:16.338Z,6.60
2022-11-18T03:54:47.096Z,6.75
2022-11-18T03:57:25.631Z,6.60
2022-11-18T04:00:14.711Z,6.85
2022-11-18T04:02:42.852Z,7.25
2022-11-18T04:05:12.208Z,7.45
2022-11-18T04:08:00.550Z,7.57
2022-11-18T04:10:35.930Z,6.40
2022-11-18T04:13:15.023Z,6.97
2022-11-18T04:15:43.357Z,7.05
2022-11-18T04:18:11.864Z,7.00
2022-11-18T04:20:40.343Z,6.57
2022-11-18T04:23:08.781Z,6.35
2022-11-18T04:25:36.970Z,7.07
2022-11-18T04:28:05.499Z,7.13
2022-11-18T04:30:33.687Z,6.15
2022-11-18T04:33:01.528Z,6.82
2022-11-18T04:35:29.451Z,6.28
2022-11-18T04:37:57.405Z,6.53
2022-11-18T04:40:25.368Z,6.10
2022-11-18T04:42:53.126Z,5.72
2022-11-18T04:45:20.830Z,7.43
2022-11-18T04:47:48.603Z,6.47
2022-11-18T04:50:16.592Z,7.38
2022-11-18T04:52:45.060Z,6.90
2022-11-18T04:55:13.034Z,6.50
2022-11-18T04:57:40.899Z,6.35
2022-11-18T05:00:09.330Z,6.85
2022-11-18T05:02:37.284Z,7.00
2022-11-18T05:05:05.435Z,6.88
2022-11-18T05:07:33.421Z,5.97
2022-11-18T05:10:01.339Z,7.18
2022-11-18T05:12:48.683Z,7.85
2022-11-18T05:15:20.367Z,7.07
2022-11-18T05:17:48.756Z,5.95
2022-11-18T05:20:16.975Z,6.97
2022-11-18T05:22:44.862Z,7.72
2022-11-18T05:25:12.662Z,6.35
2022-11-18T05:27:40.354Z,6.28
2022-11-18T05:30:08.815Z,6.45
2022-11-18T05:32:36.517Z,6.70
2022-11-18T05:35:04.500Z,6.50
2022-11-18T05:37:34.014Z,7.05
2022-11-18T05:40:01.822Z,7.65
2022-11-18T05:42:48.179Z,8.07
2022-11-18T05:45:16.433Z,6.63
2022-11-18T05:48:04.283Z,7.30
2022-11-18T05:50:33.944Z,7.15
2022-11-18T05:53:02.124Z,6.78
2022-11-18T05:55:38.915Z,6.07
2022-11-18T05:58:06.798Z,5.82
2022-11-18T06:00:35.392Z,7.22
2022-11-18T06:03:04.420Z,8.10
2022-11-18T06:05:32.149Z,7.78
2022-11-18T06:08:00.078Z,6.95
2022-11-18T06:10:35.084Z,8.05
2022-11-18T06:13:06.142Z,7.50
2022-11-18T06:15:40.736Z,7.78
2022-11-18T06:18:27.551Z,7.03
2022-11-18T06:21:01.188Z,6.85
2022-11-18T06:23:34.553Z,7.40
2022-11-18T06:26:02.431Z,6.75
2022-11-18T06:28:30.906Z,6.22
2022-11-18T06:30:59.417Z,6.95
2022-11-18T06:33:27.204Z,6.95
2022-11-18T06:35:55.057Z,7.03
2022-11-18T06:38:25.455Z,6.47
2022-11-18T06:40:53.518Z,7.85
2022-11-18T06:43:39.574Z,6.18
2022-11-18T06:46:28.964Z,5.60
2022-11-18T06:48:57.382Z,7.07
2022-11-18T06:51:25.451Z,7.00
2022-11-18T06:53:53.403Z,7.20
2022-11-18T06:56:22.548Z,7.95
2022-11-18T06:58:55.224Z,8.23
2022-11-18T07:01:25.846Z,7.53
2022-11-18T07:03:54.359Z,8.38
2022-11-18T07:06:27.734Z,7.93
2022-11-18T07:08:55.819Z,8.13
2022-11-18T07:11:25.622Z,9.02
2022-11-18T07:13:53.833Z,7.30
2022-11-18T07:16:23.861Z,7.50
2022-11-18T07:18:52.890Z,8.98
2022-11-18T07:21:26.673Z,7.57
2022-11-18T07:23:57.834Z,7.03
2022-11-18T07:26:25.744Z,7.47
2022-11-18T07:28:54.888Z,6.13
2022-11-18T07:31:22.844Z,6.90
2022-11-18T07:33:53.874Z,7.57
2022-11-18T07:36:24.027Z,5.78
2022-11-18T07:38:51.932Z,5.80
2022-11-18T07:41:25.487Z,7.38
2022-11-18T07:44:00.447Z,7.00
2022-11-18T07:46:30.522Z,7.45
2022-11-18T07:48:59.651Z,6.28
2022-11-18T07:51:36.085Z,6.63
2022-11-18T07:54:22.131Z,6.63
2022-11-18T07:56:49.887Z,6.25
2022-11-18T07:59:18.146Z,5.97
2022-11-18T08:01:46.179Z,5.30
2022-11-18T08:04:14.052Z,6.07
2022-11-18T08:06:42.224Z,6.35
2022-11-18T08:09:10.208Z,5.80
2022-11-18T08:11:38.196Z,6.03
2022-11-18T08:14:05.924Z,6.50
2022-11-18T08:16:33.707Z,5.40
2022-11-18T08:19:01.476Z,6.57
2022-11-18T08:21:29.640Z,6.57
2022-11-18T08:23:58.634Z,6.40
2022-11-18T08:26:27.431Z,6.10
2022-11-18T08:28:55.357Z,6.15
2022-11-18T08:31:25.531Z,6.32
2022-11-18T08:34:04.811Z,5.15
2022-11-18T08:36:34.583Z,5.63
2022-11-18T08:39:04.388Z,5.03
2022-11-18T08:41:41.716Z,6.00
2022-11-18T08:44:12.664Z,6.05
2022-11-18T08:46:41.007Z,5.50
2022-11-18T08:49:08.939Z,5.45
2022-11-18T08:51:37.245Z,5.47
2022-11-18T08:54:05.656Z,5.80
2022-11-18T08:56:33.586Z,6.60
2022-11-18T08:59:01.555Z,7.53
2022-11-18T09:01:29.534Z,6.93
2022-11-18T09:03:58.028Z,6.07
2022-11-18T09:06:26.787Z,7.05
2022-11-18T09:08:55.124Z,6.32
2022-11-18T09:11:29.830Z,6.55
2022-11-18T09:16:47.750Z,7.63
2022-11-18T09:22:05.055Z,6.85
2022-11-18T09:24:33.333Z,6.38
2022-11-18T09:27:05.681Z,7.47
2022-11-18T09:29:33.855Z,7.38
2022-11-18T09:32:02.349Z,6.72
2022-11-18T09:34:30.762Z,7.82
2022-11-18T09:36:58.646Z,6.45
2022-11-18T09:39:26.827Z,6.35
2022-11-18T09:42:21.470Z,6.70
2022-11-18T09:45:14.557Z,6.95
2022-11-18T09:47:43.282Z,6.57
2022-11-18T09:53:21.965Z,8.07
2022-11-18T09:55:51.366Z,6.45
2022-11-18T09:58:32.753Z,7.20
2022-11-18T10:01:01.099Z,6.88
2022-11-18T10:03:33.441Z,7.82
2022-11-18T10:06:04.456Z,6.70
2022-11-18T10:08:38.717Z,6.55
2022-11-18T10:11:21.341Z,6.88
2022-11-18T10:14:19.636Z,6.85
2022-11-18T10:17:07.131Z,6.60
2022-11-18T10:19:53.611Z,7.35
2022-11-18T10:22:37.444Z,6.40
2022-11-18T10:25:16.442Z,8.20
2022-11-18T10:27:46.364Z,6.13
2022-11-18T10:30:17.397Z,6.35
2022-11-18T10:33:05.848Z,7.50
2022-11-18T10:35:39.208Z,5.20
2022-11-18T10:38:14.276Z,5.57
2022-11-18T10:40:47.931Z,6.28
2022-11-18T10:43:42.599Z,6.78
2022-11-18T10:46:20.389Z,7.13
2022-11-18T10:48:48.268Z,7.30
2022-11-18T10:51:24.259Z,6.40
2022-11-18T10:53:52.002Z,6.47
2022-11-18T10:56:20.320Z,6.00
2022-11-18T10:58:50.193Z,6.43
2022-11-18T11:01:26.192Z,6.32
2022-11-18T11:04:04.801Z,6.28
2022-11-18T11:06:39.463Z,6.25
2022-11-18T11:09:30.512Z,6.32
2022-11-18T11:12:16.244Z,6.10
2022-11-18T11:15:00.722Z,5.65
2022-11-18T11:17:32.552Z,6.68
2022-11-18T11:20:18.762Z,6.20
2022-11-18T11:22:46.914Z,5.88
2022-11-18T11:28:57.404Z,6.97
2022-11-18T11:31:53.005Z,5.93
2022-11-18T11:34:43.275Z,5.68
2022-11-18T11:37:43.619Z,5.85
2022-11-18T11:40:26.089Z,6.30
2022-11-18T11:43:12.547Z,6.63
2022-11-18T11:45:58.725Z,6.10
2022-11-18T11:48:35.496Z,6.53
2022-11-18T11:51:16.722Z,6.82
2022-11-18T11:53:56.700Z,6.95
2022-11-18T11:56:45.582Z,7.18
2022-11-18T11:59:32.062Z,8.45
2022-11-18T12:02:57.655Z,7.40
2022-11-18T12:05:39.676Z,7.60
2022-11-18T12:11:14.220Z,8.00
2022-11-18T12:13:52.653Z,7.93
2022-11-18T12:16:51.648Z,7.45
2022-11-18T12:19:21.633Z,8.10
2022-11-18T12:22:05.477Z,7.60
2022-11-18T12:24:37.896Z,7.63
2022-11-18T12:27:12.896Z,8.02
2022-11-18T12:29:50.114Z,6.90
2022-11-18T12:32:36.794Z,6.60
2022-11-18T12:35:33.028Z,6.90
2022-11-18T12:38:01.715Z,7.22
2022-11-18T12:40:41.921Z,8.02
2022-11-18T12:43:47.838Z,7.28
2022-11-18T12:46:45.414Z,6.35
2022-11-18T12:49:22.780Z,5.82
2022-11-18T12:51:52.489Z,5.82
2022-11-18T12:54:33.491Z,5.95
2022-11-18T12:57:19.943Z,6.57
2022-11-18T12:59:47.886Z,7.10
2022-11-18T13:02:28.625Z,7.63
2022-11-18T13:05:08.758Z,7.03
2022-11-18T13:08:04.621Z,7.57
2022-11-18T13:10:35.135Z,7.40
2022-11-18T13:13:03.619Z,7.85
2022-11-18T13:15:49.986Z,7.55
2022-11-18T13:18:21.720Z,8.43
2022-11-18T13:23:48.796Z,8.50
2022-11-18T13:26:20.962Z,8.55
2022-11-18T13:29:16.488Z,10.40
2022-11-18T13:32:13.786Z,9.57
2022-11-18T13:34:49.342Z,10.55
2022-11-18T13:37:23.350Z,10.07
2022-11-18T13:39:51.687Z,10.95
2022-11-18T13:42:24.035Z,10.60
2022-11-18T13:44:55.702Z,11.13
2022-11-18T13:47:29.373Z,10.63
2022-11-18T13:50:21.179Z,10.55
2022-11-18T13:52:52.018Z,9.23
2022-11-18T13:55:25.872Z,9.70
2022-11-18T13:58:07.031Z,10.13
2022-11-18T14:00:36.701Z,11.05
2022-11-18T14:03:15.458Z,10.18
2022-11-18T14:05:43.376Z,9.98
2022-11-18T14:08:31.486Z,9.70
2022-11-18T14:11:00.104Z,11.02
2022-11-18T14:13:31.459Z,10.18
2022-11-18T14:16:01.993Z,11.30
2022-11-18T14:18:35.456Z,10.80
2022-11-18T14:21:05.173Z,10.15
2022-11-18T14:23:34.930Z,10.80
2022-11-18T14:26:05.103Z,10.65
2022-11-18T14:28:37.595Z,10.57
2022-11-18T14:31:07.748Z,10.88
2022-11-18T14:33:39.308Z,11.23
2022-11-18T14:36:16.484Z,11.50
2022-11-18T14:39:11.226Z,10.52
2022-11-18T14:41:47.634Z,11.43
2022-11-18T14:44:15.885Z,12.05
2022-11-18T14:46:46.007Z,11.90
2022-11-18T14:49:19.285Z,12.25
2022-11-18T14:51:47.832Z,11.75
2022-11-18T14:54:23.886Z,12.00
2022-11-18T14:56:58.419Z,11.75
2022-11-18T14:59:26.654Z,12.82
2022-11-18T15:01:55.118Z,13.57
2022-11-18T15:04:23.172Z,12.02
2022-11-18T15:06:51.197Z,12.43
2022-11-18T15:09:19.532Z,12.77
2022-11-18T15:11:47.983Z,13.70
2022-11-18T15:14:16.154Z,12.82
2022-11-18T15:16:44.417Z,12.35
2022-11-18T15:19:16.095Z,12.18
2022-11-18T15:21:45.600Z,12.40
2022-11-18T15:24:13.841Z,12.57
2022-11-18T15:26:44.288Z,12.02
2022-11-18T15:29:23.742Z,11.57
2022-11-18T15:31:52.064Z,10.98
2022-11-18T15:34:21.775Z,11.48
2022-11-18T15:36:49.986Z,10.68
2022-11-18T15:39:18.154Z,11.35
2022-11-18T15:41:45.905Z,11.10
2022-11-18T15:44:13.648Z,11.32
2022-11-18T15:46:41.750Z,11.02
2022-11-18T15:49:14.508Z,10.30
2022-11-18T15:51:42.382Z,10.07
2022-11-18T15:54:10.283Z,10.23
2022-11-18T15:56:39.999Z,10.82
2022-11-18T15:59:12.689Z,11.48
2022-11-18T16:01:45.640Z,9.95
2022-11-18T16:04:15.374Z,9.55
2022-11-18T16:06:43.779Z,10.15
2022-11-18T16:09:12.717Z,10.30
2022-11-18T16:11:59.059Z,10.30
2022-11-18T16:14:27.199Z,9.90
2022-11-18T16:16:56.652Z,9.05
2022-11-18T16:19:26.111Z,10.05
2022-11-18T16:21:57.087Z,9.68
2022-11-18T16:24:29.309Z,8.70
2022-11-18T16:26:57.453Z,9.02
2022-11-18T16:29:25.895Z,9.75
2022-11-18T16:34:42.214Z,9.30
2022-11-18T16:37:10.076Z,8.35
2022-11-18T16:39:37.948Z,9.68
2022-11-18T16:40:28.282Z,9.40
2022-11-18T16:42:08.677Z,8.60
2022-11-18T16:44:38.090Z,7.25
2022-11-18T16:47:12.696Z,9.73
2022-11-18T16:49:42.557Z,10.70
2022-11-18T16:52:10.500Z,8.88
2022-11-18T16:54:44.313Z,10.07
2022-11-18T16:57:13.190Z,9.93
2022-11-18T16:59:41.017Z,9.18
2022-11-18T17:02:10.729Z,9.07
2022-11-18T17:04:38.893Z,9.43
2022-11-18T17:07:09.633Z,9.48
2022-11-18T17:09:37.592Z,10.63
2022-11-18T17:12:05.823Z,9.43
2022-11-18T17:14:34.239Z,8.15
2022-11-18T17:17:01.888Z,8.95
2022-11-18T17:19:29.580Z,9.50
2022-11-18T17:21:58.106Z,8.63
2022-11-18T17:24:26.219Z,9.73
2022-11-18T17:26:54.760Z,10.30
2022-11-18T17:29:22.754Z,9.40
2022-11-18T17:31:50.667Z,10.20
2022-11-18T17:34:19.344Z,10.18
2022-11-18T17:36:47.218Z,9.38
2022-11-18T17:39:16.210Z,9.32
2022-11-18T17:42:02.838Z,10.23
2022-11-18T17:44:30.682Z,10.05
2022-11-18T17:46:59.845Z,9.90
2022-11-18T17:49:27.569Z,9.27
2022-11-18T17:51:55.350Z,10.50
2022-11-18T17:54:23.406Z,9.20
2022-11-18T17:56:54.421Z,9.43
2022-11-18T17:59:23.196Z,8.87
2022-11-18T18:01:57.357Z,8.70
2022-11-18T18:04:27.244Z,7.97
2022-11-18T18:06:55.333Z,8.23
2022-11-18T18:09:30.047Z,8.23
2022-11-18T18:11:59.756Z,8.45
2022-11-18T18:14:27.796Z,8.02
2022-11-18T18:16:55.592Z,7.95
2022-11-18T18:19:24.457Z,8.73
2022-11-18T18:21:53.800Z,8.35
2022-11-18T18:24:22.630Z,9.18
2022-11-18T18:26:51.210Z,8.00
2022-11-18T18:29:18.969Z,8.02
2022-11-18T18:31:47.072Z,7.63
2022-11-18T18:34:15.140Z,7.03
2022-11-18T18:36:43.401Z,7.57
2022-11-18T18:39:11.474Z,7.07
2022-11-18T18:41:39.418Z,8.20
2022-11-18T18:44:07.334Z,6.57
2022-11-18T18:46:36.910Z,7.95
2022-11-18T18:49:07.923Z,7.63
2022-11-18T18:51:38.314Z,7.50
2022-11-18T18:54:07.172Z,7.63
2022-11-18T18:56:35.349Z,7.25
2022-11-18T18:59:03.523Z,6.85
2022-11-18T19:01:31.446Z,7.32
2022-11-18T19:04:01.368Z,7.47
2022-11-18T19:09:21.384Z,6.45
2022-11-18T19:12:07.736Z,6.75
2022-11-18T19:14:36.117Z,6.60
2022-11-18T19:17:10.133Z,7.30
2022-11-18T19:19:58.512Z,7.10
2022-11-18T19:22:26.413Z,6.28
2022-11-18T19:24:54.807Z,6.97
2022-11-18T19:27:23.085Z,6.25
2022-11-18T19:29:51.008Z,5.97
2022-11-18T19:32:19.253Z,6.10
2022-11-18T19:34:47.027Z,6.28
2022-11-18T19:37:15.026Z,5.75
2022-11-18T19:39:42.822Z,5.68
2022-11-18T19:42:11.436Z,6.25
2022-11-18T19:44:39.835Z,6.30
2022-11-18T19:47:07.785Z,5.47
2022-11-18T19:49:35.660Z,5.50
2022-11-18T19:52:03.639Z,5.78
2022-11-18T19:54:31.396Z,5.38
2022-11-18T19:57:00.045Z,5.72
2022-11-18T19:59:28.028Z,5.60
2022-11-18T20:01:56.453Z,5.40
2022-11-18T20:04:24.456Z,5.90
2022-11-18T20:06:52.361Z,5.15
2022-11-18T20:09:20.521Z,5.57
2022-11-18T20:11:49.900Z,5.70
2022-11-18T20:14:18.068Z,6.72
2022-11-18T20:16:45.812Z,6.35
2022-11-18T20:19:13.888Z,5.38
2022-11-18T20:21:45.525Z,5.00
2022-11-18T20:24:18.582Z,6.65
2022-11-18T20:26:46.736Z,4.93
2022-11-18T20:29:18.035Z,6.25
2022-11-18T20:31:46.189Z,5.93
2022-11-18T20:34:15.031Z,6.00
2022-11-18T20:36:43.059Z,5.35
2022-11-18T20:39:15.789Z,6.03
2022-11-18T20:42:04.308Z,5.55
2022-11-18T20:44:32.556Z,5.82
2022-11-18T20:47:00.562Z,5.68
2022-11-18T20:49:28.738Z,6.35
2022-11-18T20:51:56.677Z,5.00
2022-11-18T20:54:24.497Z,5.38
2022-11-18T20:56:52.341Z,5.68
2022-11-18T20:59:20.626Z,5.47
2022-11-18T21:01:49.179Z,5.88
2022-11-18T21:04:17.824Z,6.07
2022-11-18T21:06:45.974Z,5.70
2022-11-18T21:09:14.691Z,5.38
2022-11-18T21:11:42.464Z,5.88
2022-11-18T21:14:24.537Z,5.65
2022-11-18T21:17:03.814Z,6.10
2022-11-18T21:19:35.227Z,6.00
2022-11-18T21:22:03.029Z,5.55
2022-11-18T21:24:32.645Z,5.43
2022-11-18T21:27:02.450Z,5.40
2022-11-18T21:29:32.105Z,5.55
2022-11-18T21:32:03.636Z,5.95
2022-11-18T21:34:32.163Z,5.93
2022-11-18T21:37:00.275Z,5.95
2022-11-18T21:39:28.265Z,5.03
2022-11-18T21:41:57.258Z,6.05
2022-11-18T21:44:28.560Z,5.43
2022-11-18T21:46:57.804Z,4.00
2022-11-18T21:49:25.731Z,4.97
2022-11-18T21:51:53.578Z,5.45
2022-11-18T21:54:21.395Z,4.32
2022-11-18T21:56:49.742Z,4.53
2022-11-18T21:59:17.792Z,5.10
2022-11-18T22:01:45.753Z,5.30
2022-11-18T22:04:33.454Z,5.22
2022-11-18T22:07:01.491Z,4.57
2022-11-18T22:09:35.822Z,4.63
2022-11-18T22:12:05.036Z,4.90
2022-11-18T22:14:32.928Z,4.80
2022-11-18T22:17:00.633Z,5.15
2022-11-18T22:19:28.676Z,5.13
2022-11-18T22:21:58.829Z,4.32
2022-11-18T22:24:26.773Z,4.50
2022-11-18T22:26:54.642Z,4.82
2022-11-18T22:29:24.377Z,4.90
2022-11-18T22:31:53.202Z,4.65
2022-11-18T22:34:21.639Z,4.47
2022-11-18T22:36:49.493Z,5.57
2022-11-18T22:39:17.954Z,4.88
2022-11-18T22:42:04.695Z,4.97
2022-11-18T22:44:32.543Z,4.85
2022-11-18T22:47:00.371Z,5.05
2022-11-18T22:49:28.288Z,5.35
2022-11-18T22:51:56.060Z,4.28
2022-11-18T22:54:38.399Z,4.85
2022-11-18T22:57:07.088Z,4.90
2022-11-18T22:59:34.953Z,5.05
2022-11-18T23:02:05.257Z,4.95
2022-11-18T23:04:33.088Z,4.28
2022-11-18T23:07:01.091Z,4.72
2022-11-18T23:09:29.013Z,4.65
2022-11-18T23:12:15.710Z,4.68
2022-11-18T23:14:43.771Z,4.20
2022-11-18T23:17:11.730Z,4.55
2022-11-18T23:19:43.769Z,4.63
2022-11-18T23:22:12.353Z,5.10
2022-11-18T23:24:40.362Z,4.80
2022-11-18T23:27:08.599Z,4.93
2022-11-18T23:29:36.459Z,5.72
2022-11-18T23:32:04.743Z,5.55
2022-11-18T23:34:32.550Z,4.93
2022-11-18T23:37:00.366Z,4.30
2022-11-18T23:39:28.355Z,5.68
2022-11-18T23:41:56.273Z,4.50
2022-11-18T23:44:44.043Z,4.72
2022-11-18T23:47:11.778Z,4.32
2022-11-18T23:49:39.637Z,5.03
2022-11-18T23:52:07.558Z,4.53
2022-11-18T23:54:35.524Z,4.57
2022-11-18T23:57:05.614Z,4.45
2022-11-18T23:59:33.677Z,5.15
